sensor_id;sensor_type;location;lat;lon;timestamp;pressure;altitude;pressure_sealevel;temperature;humidity
53916;BME280;39827;49.652;18.770;2023-05-18T00:00:22;74540.88;;;-149.71;81.27
53916;BME280;39827;49.652;18.770;2023-05-18T00:02:47;74565.00;;;-149.71;80.93
53916;BME280;39827;49.652;18.770;2023-05-18T00:05:13;74563.00;;;-149.71;82.08
53916;BME280;39827;49.652;18.770;2023-05-18T00:07:38;74565.00;;;-149.71;82.01
53916;BME280;39827;49.652;18.770;2023-05-18T00:10:06;74552.94;;;-149.71;81.02
53916;BME280;39827;49.652;18.770;2023-05-18T00:12:31;74554.94;;;-149.71;80.88
53916;BME280;39827;49.652;18.770;2023-05-18T00:14:57;74552.94;;;-149.71;80.61
53916;BME280;39827;49.652;18.770;2023-05-18T00:17:22;74556.97;;;-149.71;80.05
53916;BME280;39827;49.652;18.770;2023-05-18T00:19:48;74544.91;;;-149.71;80.52
53916;BME280;39827;49.652;18.770;2023-05-18T00:22:14;74544.91;;;-149.71;80.67
53916;BME280;39827;49.652;18.770;2023-05-18T00:24:44;74540.88;;;-149.71;80.96
53916;BME280;39827;49.652;18.770;2023-05-18T00:27:10;74560.97;;;-149.71;81.05
53916;BME280;39827;49.652;18.770;2023-05-18T00:29:35;74556.97;;;-149.71;79.57
53916;BME280;39827;49.652;18.770;2023-05-18T00:32:01;74552.94;;;-149.71;80.07
53916;BME280;39827;49.652;18.770;2023-05-18T00:34:26;74546.91;;;-149.71;78.72
53916;BME280;39827;49.652;18.770;2023-05-18T00:36:51;74544.91;;;-149.71;79.09
53916;BME280;39827;49.652;18.770;2023-05-18T00:39:17;74540.88;;;-149.71;79.71
53916;BME280;39827;49.652;18.770;2023-05-18T00:41:42;74560.97;;;-149.71;80.11
53916;BME280;39827;49.652;18.770;2023-05-18T00:44:08;74544.91;;;-149.71;80.01
53916;BME280;39827;49.652;18.770;2023-05-18T00:46:35;74560.97;;;-149.71;80.05
53916;BME280;39827;49.652;18.770;2023-05-18T00:49:00;74565.00;;;-149.71;80.88
53916;BME280;39827;49.652;18.770;2023-05-18T00:51:26;74544.91;;;-149.71;80.76
53916;BME280;39827;49.652;18.770;2023-05-18T00:53:54;74542.91;;;-149.71;80.91
53916;BME280;39827;49.652;18.770;2023-05-18T00:56:21;74556.97;;;-149.71;80.87
53916;BME280;39827;49.652;18.770;2023-05-18T00:58:54;74552.94;;;-149.71;81.22
53916;BME280;39827;49.652;18.770;2023-05-18T01:01:27;74554.94;;;-149.71;81.17
53916;BME280;39827;49.652;18.770;2023-05-18T01:03:56;74552.94;;;-149.71;81.02
53916;BME280;39827;49.652;18.770;2023-05-18T01:06:26;74565.00;;;-149.71;81.66
53916;BME280;39827;49.652;18.770;2023-05-18T01:08:54;74548.94;;;-149.71;81.85
53916;BME280;39827;49.652;18.770;2023-05-18T01:14:23;74552.94;;;-149.71;81.39
53916;BME280;39827;49.652;18.770;2023-05-18T01:16:55;74552.94;;;-149.71;80.44
53916;BME280;39827;49.652;18.770;2023-05-18T01:27:59;74569.03;;;-149.71;80.17
53916;BME280;39827;49.652;18.770;2023-05-18T01:30:33;74573.03;;;-149.71;81.00
53916;BME280;39827;49.652;18.770;2023-05-18T01:33:00;74565.00;;;-149.71;79.47
53916;BME280;39827;49.652;18.770;2023-05-18T01:35:26;74575.03;;;-149.71;79.52
53916;BME280;39827;49.652;18.770;2023-05-18T01:37:51;74569.03;;;-149.71;79.72
53916;BME280;39827;49.652;18.770;2023-05-18T01:40:17;74585.09;;;-149.71;80.24
53916;BME280;39827;49.652;18.770;2023-05-18T01:42:45;74585.09;;;-149.71;79.61
53916;BME280;39827;49.652;18.770;2023-05-18T01:45:21;74573.03;;;-149.71;79.86
53916;BME280;39827;49.652;18.770;2023-05-18T01:47:56;74577.06;;;-149.71;80.21
53916;BME280;39827;49.652;18.770;2023-05-18T01:50:29;74577.06;;;-149.71;78.66
53916;BME280;39827;49.652;18.770;2023-05-18T01:53:03;74583.09;;;-149.71;79.79
53916;BME280;39827;49.652;18.770;2023-05-18T01:55:32;74569.03;;;-149.71;80.90
53916;BME280;39827;49.652;18.770;2023-05-18T01:57:59;74581.06;;;-149.71;80.58
53916;BME280;39827;49.652;18.770;2023-05-18T02:00:25;74601.16;;;-149.71;79.22
53916;BME280;39827;49.652;18.770;2023-05-18T02:02:50;74593.13;;;-149.71;79.62
53916;BME280;39827;49.652;18.770;2023-05-18T02:05:16;74605.19;;;-149.71;78.64
53916;BME280;39827;49.652;18.770;2023-05-18T02:07:41;74597.16;;;-149.71;78.73
53916;BME280;39827;49.652;18.770;2023-05-18T02:10:11;74611.22;;;-149.71;80.51
53916;BME280;39827;49.652;18.770;2023-05-18T02:12:37;74605.19;;;-149.71;80.38
53916;BME280;39827;49.652;18.770;2023-05-18T02:15:02;74613.22;;;-149.71;80.54
53916;BME280;39827;49.652;18.770;2023-05-18T02:17:31;74605.19;;;-149.71;80.05
53916;BME280;39827;49.652;18.770;2023-05-18T02:19:57;74613.22;;;-149.71;80.47
53916;BME280;39827;49.652;18.770;2023-05-18T02:22:22;74609.22;;;-149.71;79.98
53916;BME280;39827;49.652;18.770;2023-05-18T02:24:48;74623.28;;;-149.71;79.26
53916;BME280;39827;49.652;18.770;2023-05-18T02:27:13;74601.16;;;-149.71;78.87
53916;BME280;39827;49.652;18.770;2023-05-18T02:29:39;74613.22;;;-149.71;79.56
53916;BME280;39827;49.652;18.770;2023-05-18T02:32:05;74613.22;;;-149.71;79.74
53916;BME280;39827;49.652;18.770;2023-05-18T02:34:30;74611.22;;;-149.71;78.57
53916;BME280;39827;49.652;18.770;2023-05-18T02:36:57;74603.19;;;-149.71;79.56
53916;BME280;39827;49.652;18.770;2023-05-18T02:39:27;74593.13;;;-149.71;79.59
53916;BME280;39827;49.652;18.770;2023-05-18T02:41:53;74621.25;;;-149.71;80.30
53916;BME280;39827;49.652;18.770;2023-05-18T02:44:18;74603.19;;;-149.71;79.80
53916;BME280;39827;49.652;18.770;2023-05-18T02:46:44;74595.13;;;-149.71;80.19
53916;BME280;39827;49.652;18.770;2023-05-18T02:49:09;74605.19;;;-149.71;80.30
53916;BME280;39827;49.652;18.770;2023-05-18T02:51:35;74597.16;;;-149.71;80.39
53916;BME280;39827;49.652;18.770;2023-05-18T02:54:00;74593.13;;;-149.71;80.38
53916;BME280;39827;49.652;18.770;2023-05-18T02:56:26;74605.19;;;-149.71;80.50
53916;BME280;39827;49.652;18.770;2023-05-18T02:58:52;74605.19;;;-149.71;79.75
53916;BME280;39827;49.652;18.770;2023-05-18T03:01:22;74607.19;;;-149.71;80.37
53916;BME280;39827;49.652;18.770;2023-05-18T03:03:54;74607.19;;;-149.71;78.63
53916;BME280;39827;49.652;18.770;2023-05-18T03:06:21;74597.16;;;-149.71;79.27
53916;BME280;39827;49.652;18.770;2023-05-18T03:08:51;74595.13;;;-149.71;80.28
53916;BME280;39827;49.652;18.770;2023-05-18T03:11:22;74603.19;;;-149.71;78.97
53916;BME280;39827;49.652;18.770;2023-05-18T03:13:47;74617.25;;;-149.71;79.18
53916;BME280;39827;49.652;18.770;2023-05-18T03:16:13;74613.22;;;-149.71;80.70
53916;BME280;39827;49.652;18.770;2023-05-18T03:18:39;74601.16;;;-149.71;80.18
53916;BME280;39827;49.652;18.770;2023-05-18T03:21:04;74605.19;;;-149.71;79.55
53916;BME280;39827;49.652;18.770;2023-05-18T03:23:30;74607.19;;;-149.71;79.65
53916;BME280;39827;49.652;18.770;2023-05-18T03:25:55;74609.22;;;-149.71;80.21
53916;BME280;39827;49.652;18.770;2023-05-18T03:28:21;74609.22;;;-149.71;79.65
53916;BME280;39827;49.652;18.770;2023-05-18T03:30:46;74617.25;;;-149.71;80.03
53916;BME280;39827;49.652;18.770;2023-05-18T03:33:12;74607.19;;;-149.71;80.36
53916;BME280;39827;49.652;18.770;2023-05-18T03:35:38;74639.34;;;-149.71;80.13
53916;BME280;39827;49.652;18.770;2023-05-18T03:38:07;74631.31;;;-149.71;80.46
53916;BME280;39827;49.652;18.770;2023-05-18T03:40:33;74627.28;;;-149.71;80.83
53916;BME280;39827;49.652;18.770;2023-05-18T03:42:58;74627.28;;;-149.71;81.11
53916;BME280;39827;49.652;18.770;2023-05-18T03:45:24;74613.22;;;-149.71;81.08
53916;BME280;39827;49.652;18.770;2023-05-18T03:47:49;74607.19;;;-149.71;80.99
53916;BME280;39827;49.652;18.770;2023-05-18T03:50:15;74613.22;;;-149.71;80.64
53916;BME280;39827;49.652;18.770;2023-05-18T03:52:42;74605.19;;;-149.71;80.44
53916;BME280;39827;49.652;18.770;2023-05-18T03:55:09;74609.22;;;-149.71;80.74
53916;BME280;39827;49.652;18.770;2023-05-18T03:57:34;74615.22;;;-149.71;81.23
53916;BME280;39827;49.652;18.770;2023-05-18T04:00:00;74595.13;;;-149.71;80.67
53916;BME280;39827;49.652;18.770;2023-05-18T04:02:28;74595.13;;;-149.71;79.79
53916;BME280;39827;49.652;18.770;2023-05-18T04:04:53;74607.19;;;-149.71;79.75
53916;BME280;39827;49.652;18.770;2023-05-18T04:07:22;74617.25;;;-149.71;80.18
53916;BME280;39827;49.652;18.770;2023-05-18T04:09:49;74619.25;;;-149.71;79.43
53916;BME280;39827;49.652;18.770;2023-05-18T04:12:15;74617.25;;;-149.71;79.79
53916;BME280;39827;49.652;18.770;2023-05-18T04:14:41;74605.19;;;-149.71;79.92
53916;BME280;39827;49.652;18.770;2023-05-18T04:17:17;74595.13;;;-149.71;79.76
53916;BME280;39827;49.652;18.770;2023-05-18T04:19:46;74605.19;;;-149.71;79.82
53916;BME280;39827;49.652;18.770;2023-05-18T04:22:12;74597.16;;;-149.71;79.84
53916;BME280;39827;49.652;18.770;2023-05-18T04:24:37;74591.13;;;-149.71;80.63
53916;BME280;39827;49.652;18.770;2023-05-18T04:27:05;74607.19;;;-149.71;80.75
53916;BME280;39827;49.652;18.770;2023-05-18T04:29:31;74607.19;;;-149.71;80.36
53916;BME280;39827;49.652;18.770;2023-05-18T04:31:56;74593.13;;;-149.71;80.16
53916;BME280;39827;49.652;18.770;2023-05-18T04:34:29;74609.22;;;-149.71;80.18
53916;BME280;39827;49.652;18.770;2023-05-18T04:36:55;74603.19;;;-149.71;80.08
53916;BME280;39827;49.652;18.770;2023-05-18T04:39:23;74601.16;;;-149.71;79.91
53916;BME280;39827;49.652;18.770;2023-05-18T04:41:50;74601.16;;;-149.71;80.40
53916;BME280;39827;49.652;18.770;2023-05-18T04:44:26;74591.13;;;-149.71;77.72
53916;BME280;39827;49.652;18.770;2023-05-18T04:46:52;74605.19;;;-149.71;78.98
53916;BME280;39827;49.652;18.770;2023-05-18T04:49:18;74581.06;;;-149.71;78.65
53916;BME280;39827;49.652;18.770;2023-05-18T04:51:51;74603.19;;;-149.71;79.62
53916;BME280;39827;49.652;18.770;2023-05-18T04:54:21;74593.13;;;-149.71;79.27
53916;BME280;39827;49.652;18.770;2023-05-18T04:56:47;74591.13;;;-149.71;79.49
53916;BME280;39827;49.652;18.770;2023-05-18T04:59:13;74585.09;;;-149.71;79.52
53916;BME280;39827;49.652;18.770;2023-05-18T05:01:38;74591.13;;;-149.71;78.86
53916;BME280;39827;49.652;18.770;2023-05-18T05:04:04;74577.06;;;-149.71;77.95
53916;BME280;39827;49.652;18.770;2023-05-18T05:06:30;74595.13;;;-149.71;78.91
53916;BME280;39827;49.652;18.770;2023-05-18T05:08:55;74595.13;;;-149.71;78.55
53916;BME280;39827;49.652;18.770;2023-05-18T05:11:21;74595.13;;;-149.71;78.39
53916;BME280;39827;49.652;18.770;2023-05-18T05:13:46;74597.16;;;-149.71;77.51
53916;BME280;39827;49.652;18.770;2023-05-18T05:16:12;74585.09;;;-149.71;78.10
53916;BME280;39827;49.652;18.770;2023-05-18T05:18:37;74575.03;;;-149.71;78.02
53916;BME280;39827;49.652;18.770;2023-05-18T05:21:02;74569.03;;;-149.71;77.87
53916;BME280;39827;49.652;18.770;2023-05-18T05:23:28;74573.03;;;-149.71;77.48
53916;BME280;39827;49.652;18.770;2023-05-18T05:25:53;74563.00;;;-149.71;77.16
53916;BME280;39827;49.652;18.770;2023-05-18T05:28:18;74554.94;;;-149.71;77.75
53916;BME280;39827;49.652;18.770;2023-05-18T05:30:44;74556.97;;;-149.71;78.33
53916;BME280;39827;49.652;18.770;2023-05-18T05:33:09;74552.94;;;-149.71;78.17
53916;BME280;39827;49.652;18.770;2023-05-18T05:35:35;74560.97;;;-149.71;76.53
53916;BME280;39827;49.652;18.770;2023-05-18T05:38:00;74577.06;;;-149.71;77.61
53916;BME280;39827;49.652;18.770;2023-05-18T05:40:26;74556.97;;;-149.71;77.17
53916;BME280;39827;49.652;18.770;2023-05-18T05:42:51;74550.94;;;-149.71;78.04
53916;BME280;39827;49.652;18.770;2023-05-18T05:45:16;74544.91;;;-149.71;76.69
53916;BME280;39827;49.652;18.770;2023-05-18T05:47:42;74534.88;;;-149.71;75.65
53916;BME280;39827;49.652;18.770;2023-05-18T05:50:07;74526.81;;;-149.71;75.19
53916;BME280;39827;49.652;18.770;2023-05-18T05:52:33;74542.91;;;-149.71;74.45
53916;BME280;39827;49.652;18.770;2023-05-18T05:54:58;74530.84;;;-149.71;75.64
53916;BME280;39827;49.652;18.770;2023-05-18T05:57:23;74528.84;;;-149.71;75.26
53916;BME280;39827;49.652;18.770;2023-05-18T05:59:50;74524.81;;;-149.71;74.94
53916;BME280;39827;49.652;18.770;2023-05-18T06:02:15;74514.78;;;-149.71;76.16
53916;BME280;39827;49.652;18.770;2023-05-18T06:04:40;74508.75;;;-149.71;75.08
53916;BME280;39827;49.652;18.770;2023-05-18T06:07:06;74502.72;;;-149.71;73.79
53916;BME280;39827;49.652;18.770;2023-05-18T06:09:31;74520.78;;;-149.71;72.92
53916;BME280;39827;49.652;18.770;2023-05-18T06:11:57;74506.72;;;-149.71;73.14
53916;BME280;39827;49.652;18.770;2023-05-18T06:14:22;74498.69;;;-149.71;74.00
53916;BME280;39827;49.652;18.770;2023-05-18T06:16:47;74468.56;;;-149.71;72.01
53916;BME280;39827;49.652;18.770;2023-05-18T06:19:13;74468.56;;;-149.71;71.07
53916;BME280;39827;49.652;18.770;2023-05-18T06:21:38;74460.53;;;-149.71;72.05
53916;BME280;39827;49.652;18.770;2023-05-18T06:24:04;74442.44;;;-149.71;73.03
53916;BME280;39827;49.652;18.770;2023-05-18T06:26:30;74438.41;;;-149.71;73.40
53916;BME280;39827;49.652;18.770;2023-05-18T06:28:55;74460.53;;;-149.71;70.80
53916;BME280;39827;49.652;18.770;2023-05-18T06:31:21;74458.50;;;-149.71;72.77
53916;BME280;39827;49.652;18.770;2023-05-18T06:33:47;74438.41;;;-149.71;72.96
53916;BME280;39827;49.652;18.770;2023-05-18T06:36:12;74450.47;;;-149.71;69.69
53916;BME280;39827;49.652;18.770;2023-05-18T06:38:38;74420.34;;;-149.71;68.88
53916;BME280;39827;49.652;18.770;2023-05-18T06:41:03;74434.41;;;-149.71;70.48
53916;BME280;39827;49.652;18.770;2023-05-18T06:43:28;74444.44;;;-149.71;69.64
53916;BME280;39827;49.652;18.770;2023-05-18T06:45:55;74434.41;;;-149.71;69.90
53916;BME280;39827;49.652;18.770;2023-05-18T06:48:24;74420.34;;;-149.71;71.00
53916;BME280;39827;49.652;18.770;2023-05-18T06:50:49;74432.38;;;-149.71;69.55
53916;BME280;39827;49.652;18.770;2023-05-18T06:53:15;74414.31;;;-149.71;70.56
53916;BME280;39827;49.652;18.770;2023-05-18T06:55:40;74422.34;;;-149.71;70.94
53916;BME280;39827;49.652;18.770;2023-05-18T06:58:06;74416.31;;;-149.71;69.74
53916;BME280;39827;49.652;18.770;2023-05-18T07:00:31;74396.22;;;-149.71;70.76
53916;BME280;39827;49.652;18.770;2023-05-18T07:02:57;74376.13;;;-149.71;70.53
53916;BME280;39827;49.652;18.770;2023-05-18T07:05:23;74384.16;;;-149.71;69.20
53916;BME280;39827;49.652;18.770;2023-05-18T07:07:48;74366.09;;;-149.71;67.14
53916;BME280;39827;49.652;18.770;2023-05-18T07:10:13;74352.03;;;-149.71;68.99
53916;BME280;39827;49.652;18.770;2023-05-18T07:12:39;74396.22;;;-149.71;66.65
53916;BME280;39827;49.652;18.770;2023-05-18T07:15:05;74356.03;;;-149.71;67.05
53916;BME280;39827;49.652;18.770;2023-05-18T07:17:30;74352.03;;;-149.71;67.80
53916;BME280;39827;49.652;18.770;2023-05-18T07:19:56;74329.91;;;-149.71;68.03
53916;BME280;39827;49.652;18.770;2023-05-18T07:22:21;74313.84;;;-149.71;68.88
53916;BME280;39827;49.652;18.770;2023-05-18T07:24:46;74386.19;;;-149.71;66.04
53916;BME280;39827;49.652;18.770;2023-05-18T07:27:12;74374.13;;;-149.71;66.89
53916;BME280;39827;49.652;18.770;2023-05-18T07:29:38;74354.03;;;-149.71;66.78
53916;BME280;39827;49.652;18.770;2023-05-18T07:32:03;74352.03;;;-149.71;64.27
53916;BME280;39827;49.652;18.770;2023-05-18T07:34:30;74337.97;;;-149.71;65.58
53916;BME280;39827;49.652;18.770;2023-05-18T07:36:56;74333.94;;;-149.71;66.49
53916;BME280;39827;49.652;18.770;2023-05-18T07:39:21;74331.94;;;-149.71;64.78
53916;BME280;39827;49.652;18.770;2023-05-18T07:41:53;74350.00;;;-149.71;68.01
53916;BME280;39827;49.652;18.770;2023-05-18T07:44:18;74354.03;;;-149.71;67.93
53916;BME280;39827;49.652;18.770;2023-05-18T07:46:44;74356.03;;;-149.71;68.27
53916;BME280;39827;49.652;18.770;2023-05-18T07:49:09;74368.09;;;-149.71;65.76
53916;BME280;39827;49.652;18.770;2023-05-18T07:51:35;74416.31;;;-149.71;66.66
53916;BME280;39827;49.652;18.770;2023-05-18T07:54:00;74390.19;;;-149.71;66.92
53916;BME280;39827;49.652;18.770;2023-05-18T07:56:26;74390.19;;;-149.71;68.33
53916;BME280;39827;49.652;18.770;2023-05-18T07:58:51;74372.13;;;-149.71;68.60
53916;BME280;39827;49.652;18.770;2023-05-18T08:01:16;74376.13;;;-149.71;66.73
53916;BME280;39827;49.652;18.770;2023-05-18T08:03:42;74384.16;;;-149.71;65.76
53916;BME280;39827;49.652;18.770;2023-05-18T08:06:07;74412.28;;;-149.71;67.05
53916;BME280;39827;49.652;18.770;2023-05-18T08:08:33;74428.38;;;-149.71;70.03
53916;BME280;39827;49.652;18.770;2023-05-18T08:11:02;74404.25;;;-149.71;67.68
53916;BME280;39827;49.652;18.770;2023-05-18T08:13:27;74394.22;;;-149.71;68.39
53916;BME280;39827;49.652;18.770;2023-05-18T08:15:53;74410.28;;;-149.71;65.67
53916;BME280;39827;49.652;18.770;2023-05-18T08:18:18;74408.28;;;-149.71;66.47
53916;BME280;39827;49.652;18.770;2023-05-18T08:20:44;74426.38;;;-149.71;66.26
53916;BME280;39827;49.652;18.770;2023-05-18T08:23:09;74416.31;;;-149.71;66.12
53916;BME280;39827;49.652;18.770;2023-05-18T08:25:35;74404.25;;;-149.71;67.39
53916;BME280;39827;49.652;18.770;2023-05-18T08:28:00;74388.19;;;-149.71;66.66
53916;BME280;39827;49.652;18.770;2023-05-18T08:30:25;74426.38;;;-149.71;65.68
53916;BME280;39827;49.652;18.770;2023-05-18T08:32:51;74436.41;;;-149.71;66.44
53916;BME280;39827;49.652;18.770;2023-05-18T08:35:16;74390.19;;;-149.71;64.32
53916;BME280;39827;49.652;18.770;2023-05-18T08:37:42;74428.38;;;-149.71;65.49
53916;BME280;39827;49.652;18.770;2023-05-18T08:40:08;74400.25;;;-149.71;65.37
53916;BME280;39827;49.652;18.770;2023-05-18T08:42:46;74412.28;;;-149.71;67.09
53916;BME280;39827;49.652;18.770;2023-05-18T08:45:24;74384.16;;;-149.71;64.85
53916;BME280;39827;49.652;18.770;2023-05-18T08:47:55;74372.13;;;-149.71;64.01
53916;BME280;39827;49.652;18.770;2023-05-18T08:50:22;74370.09;;;-149.71;62.26
53916;BME280;39827;49.652;18.770;2023-05-18T08:52:52;74331.94;;;-149.71;60.76
53916;BME280;39827;49.652;18.770;2023-05-18T08:55:19;74333.94;;;-149.71;60.39
53916;BME280;39827;49.652;18.770;2023-05-18T08:57:51;74352.03;;;-149.71;59.84
53916;BME280;39827;49.652;18.770;2023-05-18T09:00:21;74356.03;;;-149.71;60.40
53916;BME280;39827;49.652;18.770;2023-05-18T09:02:48;74339.97;;;-149.71;59.74
53916;BME280;39827;49.652;18.770;2023-05-18T09:05:15;74350.00;;;-149.71;59.14
53916;BME280;39827;49.652;18.770;2023-05-18T09:07:42;74323.88;;;-149.71;58.63
53916;BME280;39827;49.652;18.770;2023-05-18T09:10:11;74317.88;;;-149.71;57.12
53916;BME280;39827;49.652;18.770;2023-05-18T09:12:38;74335.94;;;-149.71;58.23
53916;BME280;39827;49.652;18.770;2023-05-18T09:15:07;74321.88;;;-149.71;59.87
53916;BME280;39827;49.652;18.770;2023-05-18T09:17:34;74356.03;;;-149.71;56.95
53916;BME280;39827;49.652;18.770;2023-05-18T09:19:59;74323.88;;;-149.71;58.41
53916;BME280;39827;49.652;18.770;2023-05-18T09:22:25;74366.09;;;-149.71;55.19
53916;BME280;39827;49.652;18.770;2023-05-18T09:24:51;74374.13;;;-149.71;55.91
53916;BME280;39827;49.652;18.770;2023-05-18T09:27:16;74343.97;;;-149.71;55.34
53916;BME280;39827;49.652;18.770;2023-05-18T09:29:52;74406.28;;;-149.71;54.05
53916;BME280;39827;49.652;18.770;2023-05-18T09:32:18;74434.41;;;-149.71;51.61
53916;BME280;39827;49.652;18.770;2023-05-18T09:34:44;74414.31;;;-149.71;52.62
53916;BME280;39827;49.652;18.770;2023-05-18T09:37:10;74428.38;;;-149.71;54.92
53916;BME280;39827;49.652;18.770;2023-05-18T09:39:36;74394.22;;;-149.71;55.32
53916;BME280;39827;49.652;18.770;2023-05-18T09:42:02;74378.13;;;-149.71;55.67
53916;BME280;39827;49.652;18.770;2023-05-18T09:44:33;74400.25;;;-149.71;54.07
53916;BME280;39827;49.652;18.770;2023-05-18T09:46:59;74374.13;;;-149.71;57.70
53916;BME280;39827;49.652;18.770;2023-05-18T09:49:24;74380.16;;;-149.71;54.22
53916;BME280;39827;49.652;18.770;2023-05-18T09:51:50;74394.22;;;-149.71;54.66
53916;BME280;39827;49.652;18.770;2023-05-18T09:54:15;74456.50;;;-149.71;55.45
53916;BME280;39827;49.652;18.770;2023-05-18T09:56:43;74414.31;;;-149.71;54.98
53916;BME280;39827;49.652;18.770;2023-05-18T09:59:11;74448.47;;;-149.71;55.14
53916;BME280;39827;49.652;18.770;2023-05-18T10:01:54;74448.47;;;-149.71;55.66
53916;BME280;39827;49.652;18.770;2023-05-18T10:04:19;74448.47;;;-149.71;56.20
53916;BME280;39827;49.652;18.770;2023-05-18T10:06:48;74468.56;;;-149.71;56.57
53916;BME280;39827;49.652;18.770;2023-05-18T10:09:15;74486.63;;;-149.71;58.59
53916;BME280;39827;49.652;18.770;2023-05-18T10:11:41;74466.53;;;-149.71;58.52
53916;BME280;39827;49.652;18.770;2023-05-18T10:14:10;74436.41;;;-149.71;58.13
53916;BME280;39827;49.652;18.770;2023-05-18T10:16:35;74444.44;;;-149.71;58.23
53916;BME280;39827;49.652;18.770;2023-05-18T10:19:02;74426.38;;;-149.71;58.89
53916;BME280;39827;49.652;18.770;2023-05-18T10:21:32;74450.47;;;-149.71;60.08
53916;BME280;39827;49.652;18.770;2023-05-18T10:23:59;74454.50;;;-149.71;59.35
53916;BME280;39827;49.652;18.770;2023-05-18T10:26:27;74470.56;;;-149.71;60.85
53916;BME280;39827;49.652;18.770;2023-05-18T10:28:55;74492.66;;;-149.71;59.97
53916;BME280;39827;49.652;18.770;2023-05-18T10:31:23;74490.66;;;-149.71;61.62
53916;BME280;39827;49.652;18.770;2023-05-18T10:33:50;74482.63;;;-149.71;60.91
53916;BME280;39827;49.652;18.770;2023-05-18T10:36:16;74496.69;;;-149.71;62.45
53916;BME280;39827;49.652;18.770;2023-05-18T10:38:42;74502.72;;;-149.71;63.70
53916;BME280;39827;49.652;18.770;2023-05-18T10:41:10;74474.59;;;-149.71;64.48
53916;BME280;39827;49.652;18.770;2023-05-18T10:43:36;74470.56;;;-149.71;65.82
53916;BME280;39827;49.652;18.770;2023-05-18T10:46:04;74460.53;;;-149.71;64.86
53916;BME280;39827;49.652;18.770;2023-05-18T10:48:29;74464.53;;;-149.71;65.96
53916;BME280;39827;49.652;18.770;2023-05-18T10:50:56;74460.53;;;-149.71;67.00
53916;BME280;39827;49.652;18.770;2023-05-18T10:53:26;74452.47;;;-149.71;67.95
53916;BME280;39827;49.652;18.770;2023-05-18T10:55:53;74466.53;;;-149.71;66.94
53916;BME280;39827;49.652;18.770;2023-05-18T10:58:20;74440.44;;;-149.71;66.96
53916;BME280;39827;49.652;18.770;2023-05-18T11:00:49;74446.44;;;-149.71;67.69
53916;BME280;39827;49.652;18.770;2023-05-18T11:03:16;74436.41;;;-149.71;67.57
53916;BME280;39827;49.652;18.770;2023-05-18T11:05:43;74444.44;;;-149.71;67.49
53916;BME280;39827;49.652;18.770;2023-05-18T11:08:09;74496.69;;;-149.71;67.41
53916;BME280;39827;49.652;18.770;2023-05-18T11:10:36;74480.59;;;-149.71;65.30
53916;BME280;39827;49.652;18.770;2023-05-18T11:13:03;74458.50;;;-149.71;66.42
53916;BME280;39827;49.652;18.770;2023-05-18T11:18:15;74444.44;;;-149.71;65.39
53916;BME280;39827;49.652;18.770;2023-05-18T11:20:40;74464.53;;;-149.71;64.73
53916;BME280;39827;49.652;18.770;2023-05-18T11:23:09;74456.50;;;-149.71;64.31
53916;BME280;39827;49.652;18.770;2023-05-18T11:25:38;74500.69;;;-149.71;65.49
53916;BME280;39827;49.652;18.770;2023-05-18T11:28:06;74460.53;;;-149.71;65.63
53916;BME280;39827;49.652;18.770;2023-05-18T11:33:10;74512.75;;;-149.71;63.90
53916;BME280;39827;49.652;18.770;2023-05-18T11:41:33;74466.53;;;-149.71;65.44
53916;BME280;39827;49.652;18.770;2023-05-18T11:47:17;74460.53;;;-149.71;67.34
53916;BME280;39827;49.652;18.770;2023-05-18T11:49:47;74496.69;;;-149.71;64.03
53916;BME280;39827;49.652;18.770;2023-05-18T11:52:20;74488.66;;;-149.71;67.15
53916;BME280;39827;49.652;18.770;2023-05-18T11:54:48;74514.78;;;-149.71;66.11
53916;BME280;39827;49.652;18.770;2023-05-18T11:57:15;74518.78;;;-149.71;66.46
53916;BME280;39827;49.652;18.770;2023-05-18T11:59:46;74498.69;;;-149.71;71.02
53916;BME280;39827;49.652;18.770;2023-05-18T12:02:18;74484.63;;;-149.71;69.35
53916;BME280;39827;49.652;18.770;2023-05-18T12:04:51;74480.59;;;-149.71;68.92
53916;BME280;39827;49.652;18.770;2023-05-18T12:07:18;74472.56;;;-149.71;70.03
53916;BME280;39827;49.652;18.770;2023-05-18T12:09:44;74498.69;;;-149.71;67.31
53916;BME280;39827;49.652;18.770;2023-05-18T12:12:12;74518.78;;;-149.71;69.16
53916;BME280;39827;49.652;18.770;2023-05-18T12:14:41;74512.75;;;-149.71;67.66
53916;BME280;39827;49.652;18.770;2023-05-18T12:17:08;74508.75;;;-149.71;67.57
53916;BME280;39827;49.652;18.770;2023-05-18T12:19:46;74502.72;;;-149.71;67.43
53916;BME280;39827;49.652;18.770;2023-05-18T12:22:12;74546.91;;;-149.71;66.55
53916;BME280;39827;49.652;18.770;2023-05-18T12:24:38;74520.78;;;-149.71;69.61
53916;BME280;39827;49.652;18.770;2023-05-18T12:27:08;74518.78;;;-149.71;64.83
53916;BME280;39827;49.652;18.770;2023-05-18T12:29:38;74536.88;;;-149.71;65.83
53916;BME280;39827;49.652;18.770;2023-05-18T12:32:06;74538.88;;;-149.71;68.72
53916;BME280;39827;49.652;18.770;2023-05-18T12:34:32;74530.84;;;-149.71;70.36
53916;BME280;39827;49.652;18.770;2023-05-18T12:36:57;74508.75;;;-149.71;68.00
53916;BME280;39827;49.652;18.770;2023-05-18T12:39:23;74472.56;;;-149.71;68.64
53916;BME280;39827;49.652;18.770;2023-05-18T12:41:49;74476.59;;;-149.71;67.79
53916;BME280;39827;49.652;18.770;2023-05-18T12:44:14;74458.50;;;-149.71;68.85
53916;BME280;39827;49.652;18.770;2023-05-18T12:46:41;74440.44;;;-149.71;69.85
53916;BME280;39827;49.652;18.770;2023-05-18T12:49:10;74424.34;;;-149.71;70.21
53916;BME280;39827;49.652;18.770;2023-05-18T12:51:37;74450.47;;;-149.71;67.91
53916;BME280;39827;49.652;18.770;2023-05-18T12:54:06;74446.44;;;-149.71;66.95